Date,TemperatureHighF,TemperatureAvgF,TemperatureLowF,DewpointHighF,DewpointAvgF,DewpointLowF,HumidityHigh,HumidityAvg,HumidityLow,PressureMaxIn,PressureMinIn,WindSpeedMaxMPH,WindSpeedAvgMPH,GustSpeedMaxMPH,PrecipitationSumIn
2013-1-1,36.0,25.9,19.0,26.0,18.1,-99.9,98,76,55,0.00,40.00,36,14,46,0.08
2013-1-2,29.0,23.3,15.0,16.0,9.8,-99.9,77,57,46,0.00,40.00,30,16,39,0.00
2013-1-3,35.0,24.9,14.0,16.0,2.0,-99.9,59,38,23,0.00,40.00,10,5,12,0.00
2013-1-4,42.0,30.7,18.0,19.0,9.9,3.0,63,42,27,0.00,40.00,12,6,16,0.00
2013-1-5,40.0,29.7,19.0,21.0,17.7,12.0,89,62,45,0.00,40.00,16,8,21,0.00
2013-1-6,36.0,25.3,14.0,19.0,12.3,-99.9,86,61,37,0.00,40.00,17,6,19,0.00
2013-1-7,36.0,29.2,24.0,23.0,18.6,-99.9,83,66,50,0.00,40.00,12,5,15,0.00
2013-1-8,42.0,35.0,24.0,22.0,18.7,15.0,78,52,36,0.00,40.00,29,11,37,0.00
2013-1-9,52.0,35.6,24.0,29.0,21.6,9.0,73,57,17,0.00,40.00,18,7,22,0.00
2013-1-10,52.0,32.2,16.0,29.0,21.9,10.0,100,69,18,0.00,40.00,20,10,26,0.02
2013-1-11,16.0,5.9,2.0,15.0,-0.2,-99.9,97,88,89,0.00,40.00,0,0,1,0.11
2013-1-12,17.0,6.1,1.0,12.0,2.7,-99.9,93,88,78,0.00,40.00,0,0,1,0.00
2013-1-13,14.0,9.1,3.0,7.0,3.0,-99.9,93,78,62,0.00,40.00,11,1,19,0.00
2013-1-14,24.0,12.0,7.0,4.0,0.3,-99.9,72,61,39,0.00,40.00,10,3,13,0.00
2013-1-15,38.0,28.2,14.0,28.0,20.5,1.0,98,74,49,0.00,40.00,21,7,28,0.02
2013-1-16,44.0,34.7,25.0,24.0,19.0,14.0,76,54,31,0.00,40.00,24,8,34,0.00
2013-1-17,46.0,35.3,25.0,25.0,18.6,12.0,67,51,31,0.00,40.00,9,4,11,0.00
2013-1-18,54.0,45.2,34.0,21.0,11.8,-99.9,50,28,16,0.00,40.00,26,15,35,0.00
2013-1-19,40.0,33.8,26.0,26.0,18.8,-99.9,89,58,34,0.00,40.00,21,10,27,0.00
2013-1-20,37.0,22.1,16.0,20.0,14.5,-99.9,97,80,39,0.00,40.00,32,10,42,0.08
2013-1-21,38.0,23.2,16.0,24.0,18.6,16.0,99,84,56,0.00,40.00,9,4,12,0.00
2013-1-22,47.0,36.5,25.0,20.0,12.8,8.0,71,39,22,0.00,40.00,12,4,16,0.00
2013-1-23,38.0,27.8,21.0,21.0,17.1,9.0,92,67,29,0.00,40.00,16,8,19,0.00
2013-1-24,55.0,39.4,20.0,26.0,19.3,-99.9,92,51,17,0.00,40.00,17,9,25,0.00
2013-1-25,47.0,35.2,26.0,27.0,22.7,-99.9,86,63,35,0.00,40.00,12,6,16,0.00
2013-1-26,51.0,39.7,31.0,30.0,23.4,-99.9,77,55,38,0.00,40.00,12,6,14,0.00
2013-1-27,35.0,30.3,26.0,33.0,27.5,-99.9,100,94,71,0.00,40.00,21,8,25,0.25
2013-1-28,28.0,23.2,19.0,28.0,18.2,-99.9,100,89,59,0.00,40.00,11,4,13,0.08
2013-1-29,23.0,13.0,-3.0,22.0,6.9,-99.9,98,82,53,0.00,40.00,30,11,37,0.10
2013-1-30,32.0,18.1,-4.0,30.0,14.2,-99.9,100,91,70,0.00,40.00,28,14,35,0.63
2013-1-31,29.0,13.6,3.0,24.0,10.3,-99.9,97,90,78,0.00,40.00,14,5,17,0.03
2013-2-1,37.0,33.4,27.0,33.0,28.1,24.0,100,81,62,0.00,40.00,35,13,45,0.08
2013-2-2,38.0,31.9,24.0,26.0,20.0,-99.9,79,63,53,0.00,40.00,27,12,34,0.00
2013-2-3,43.0,34.5,27.0,24.0,18.7,-99.9,70,54,35,0.00,40.00,18,6,22,0.00
2013-2-4,42.0,35.8,27.0,27.0,22.5,18.0,69,58,48,0.00,40.00,20,8,26,0.00
2013-2-5,40.0,34.3,29.0,29.0,25.3,-99.9,85,71,58,0.00,40.00,20,7,26,0.00
2013-2-6,40.0,35.2,28.0,26.0,22.3,14.0,73,59,43,0.00,40.00,18,8,24,0.00
2013-2-7,32.0,27.1,23.0,25.0,17.2,-99.9,86,69,51,0.00,40.00,14,6,16,0.00
2013-2-8,38.0,30.6,23.0,23.0,18.5,-99.9,80,63,48,0.00,40.00,12,4,14,0.00
2013-2-9,33.0,26.8,22.0,26.0,18.8,-99.9,97,77,61,0.00,40.00,14,5,19,0.06
2013-2-10,27.0,20.1,13.0,26.0,16.0,-99.9,100,92,80,0.00,40.00,30,18,38,0.43
2013-2-11,26.0,16.5,6.0,12.0,5.2,-99.9,96,68,39,0.00,40.00,11,6,12,0.00
2013-2-12,36.0,27.9,18.0,25.0,16.4,8.0,71,62,52,0.00,40.00,17,6,22,0.00
2013-2-13,42.0,33.3,26.0,32.0,23.8,-99.9,100,72,45,0.00,40.00,31,14,43,0.40
2013-2-14,29.0,23.6,21.0,29.0,17.6,11.0,100,79,54,0.00,40.00,21,13,30,0.36
2013-2-15,40.0,26.9,22.0,24.0,19.4,-99.9,100,76,39,0.00,40.00,22,9,29,0.25
2013-2-16,53.0,35.9,26.0,29.0,22.2,18.0,73,58,34,0.00,40.00,9,3,11,0.00
2013-2-17,44.0,32.3,26.0,31.0,24.0,-99.9,100,77,32,0.00,40.00,34,18,45,0.32
2013-2-18,27.0,19.8,8.0,26.0,15.5,-99.9,100,90,76,0.00,40.00,24,10,30,0.49
2013-2-19,25.0,12.7,1.0,19.0,6.4,-99.9,97,85,71,0.00,40.00,17,7,20,0.00
2013-2-20,22.0,16.4,12.0,19.0,13.8,-99.9,100,92,83,0.00,40.00,13,6,17,0.00
2013-2-21,37.0,18.6,10.0,21.0,12.8,-99.9,100,86,45,0.00,40.00,7,3,9,0.00
2013-2-22,35.0,24.0,16.0,19.0,8.9,-99.9,93,59,41,0.00,40.00,15,5,19,0.00
2013-2-23,38.0,29.3,22.0,32.0,21.3,-99.9,100,76,46,0.00,40.00,32,10,39,0.29
2013-2-24,34.0,25.1,16.0,25.0,17.9,-99.9,99,76,48,0.00,40.00,21,11,26,0.02
2013-2-25,34.0,24.8,15.0,25.0,12.5,-99.9,77,62,51,0.00,40.00,19,7,26,0.00
2013-2-26,34.0,28.0,17.0,27.0,17.5,-99.9,100,71,54,0.00,40.00,20,13,26,0.01
2013-2-27,38.0,25.2,15.0,19.0,10.0,-99.9,97,58,35,0.00,40.00,10,4,11,0.00
2013-2-28,38.0,29.1,22.0,22.0,14.6,-99.9,78,59,42,0.00,40.00,16,8,21,0.00
2013-3-1,48.0,37.3,22.0,33.0,24.6,-99.9,76,62,46,0.00,40.00,22,10,27,0.00
2013-3-2,57.0,45.2,37.0,32.0,25.5,-99.9,66,48,34,0.00,40.00,11,3,12,0.00
2013-3-3,49.0,41.8,32.0,33.0,27.4,-99.9,94,59,41,0.00,40.00,50,6,72,0.00
2013-3-4,20.0,16.1,12.0,17.0,8.0,-99.9,96,83,75,0.00,40.00,39,19,49,0.01
2013-3-5,27.0,16.3,6.0,20.0,9.5,-99.9,96,82,72,0.00,40.00,16,9,18,0.00
2013-3-6,38.0,24.8,15.0,28.0,16.6,-99.9,91,78,66,0.00,40.00,19,9,22,0.00
2013-3-7,47.0,36.1,25.0,27.0,21.8,14.0,86,58,31,0.00,40.00,17,6,24,0.00
2013-3-8,42.0,33.3,27.0,30.0,26.7,-99.9,92,78,61,0.00,40.00,17,8,19,0.00
2013-3-9,37.0,31.3,24.0,30.0,22.4,-99.9,100,75,49,0.00,40.00,21,13,30,0.00
2013-3-10,48.0,33.6,20.0,27.0,19.3,-99.9,86,59,36,0.00,40.00,12,6,15,0.00
2013-3-11,40.0,31.4,23.0,33.0,26.1,-99.9,100,85,49,0.00,40.00,24,14,37,0.52
2013-3-12,36.0,26.1,15.0,26.0,17.1,-99.9,89,73,59,0.00,40.00,15,9,18,0.00
2013-3-13,56.0,43.2,32.0,30.0,25.0,-99.9,68,50,36,0.00,40.00,17,6,21,0.00
2013-3-14,67.0,50.4,41.0,31.0,26.3,-99.9,60,41,23,0.00,40.00,9,4,13,0.00
2013-3-15,60.0,48.5,39.0,31.0,23.9,-99.9,71,42,21,0.00,40.00,24,10,32,0.00
2013-3-16,48.0,37.2,27.0,33.0,27.0,-99.9,100,72,39,0.00,40.00,12,5,24,0.01
2013-3-17,37.0,29.8,17.0,33.0,23.1,-99.9,100,81,40,0.00,40.00,40,20,54,0.06
2013-3-18,37.0,23.0,8.0,22.0,13.5,-99.9,100,73,28,0.00,40.00,26,8,38,0.00
2013-3-19,30.0,25.3,20.0,24.0,18.9,-99.9,99,79,56,0.00,40.00,15,8,21,0.05
2013-3-20,47.0,29.6,16.0,26.0,18.0,-99.9,92,67,38,0.00,40.00,21,12,26,0.00
2013-3-21,39.0,32.3,29.0,32.0,24.3,16.0,100,74,48,0.00,40.00,28,13,37,0.29
2013-3-22,30.0,24.3,14.0,26.0,13.4,-99.9,99,66,51,0.00,40.00,21,12,25,0.08
2013-3-23,17.0,12.4,8.0,16.0,5.9,-99.9,96,85,77,0.00,40.00,14,9,17,0.00
2013-3-25,38.0,25.8,9.0,16.0,11.7,5.0,96,59,26,0.00,40.00,16,8,22,0.00
2013-3-26,48.0,33.7,21.0,21.0,12.4,-99.9,70,46,21,0.00,40.00,10,4,16,0.00
2013-3-27,58.0,41.5,25.0,28.0,19.6,16.0,74,45,20,0.00,40.00,9,3,14,0.00
2013-3-28,61.0,47.4,35.0,29.0,22.1,-99.9,62,39,23,0.00,40.00,9,4,14,0.00
2013-3-29,57.0,47.0,38.0,40.0,29.7,23.0,95,53,34,0.00,40.00,17,8,30,0.07
2013-3-30,54.0,43.3,36.0,36.0,26.7,-99.9,93,59,25,0.00,40.00,30,12,40,0.17
2013-3-31,55.0,41.6,29.0,27.0,22.1,-99.9,81,50,29,0.00,40.00,26,12,36,0.00
2013-4-1,56.0,41.0,27.0,29.0,20.9,-99.9,88,51,21,0.00,40.00,11,5,18,0.00
2013-4-2,63.0,45.6,27.0,27.0,21.8,19.0,78,44,18,0.00,40.00,13,6,15,0.00
2013-4-3,61.0,50.4,37.0,31.0,24.8,19.0,74,39,23,0.00,40.00,27,10,39,0.00
2013-4-4,60.0,46.2,31.0,33.0,29.7,-99.9,89,57,31,0.00,40.00,15,8,17,0.00
2013-4-5,60.0,48.5,41.0,44.0,35.1,30.0,93,62,34,0.00,40.00,27,8,36,0.13
2013-4-6,58.0,48.9,38.0,38.0,30.2,-99.9,87,51,31,0.00,40.00,20,6,26,0.00
2013-4-7,58.0,45.3,36.0,39.0,34.7,27.0,96,69,31,0.00,40.00,15,5,22,0.06
2013-4-8,39.0,21.6,15.0,39.0,18.0,-99.9,100,94,93,0.00,40.00,30,16,37,0.15
2013-4-9,19.0,14.9,12.0,15.0,6.3,-99.9,96,82,61,0.00,40.00,12,6,15,0.03
2013-4-10,33.0,21.0,9.0,25.0,13.6,-99.9,96,79,57,0.00,40.00,17,10,20,0.00
2013-4-11,47.0,37.1,24.0,36.0,28.6,-99.9,95,74,50,0.00,40.00,29,13,39,0.00
2013-4-12,43.0,35.3,31.0,34.0,26.5,-99.9,100,75,43,0.00,40.00,26,12,35,0.13
2013-4-13,51.0,35.6,29.0,34.0,30.0,24.0,100,81,50,0.00,40.00,28,14,38,0.42
2013-4-14,30.0,25.3,18.0,29.0,17.5,-99.9,100,83,67,0.00,40.00,37,23,47,0.22
2013-4-15,26.0,19.5,13.0,21.0,15.7,-99.9,99,88,70,0.00,40.00,14,7,19,0.01
2013-4-16,26.0,21.1,17.0,21.0,15.8,-99.9,100,88,77,0.00,40.00,6,4,12,0.06
2013-4-17,27.0,20.9,17.0,24.0,17.3,-99.9,100,90,68,0.00,40.00,17,9,22,0.32
2013-4-18,45.0,30.9,15.0,29.0,16.9,-99.9,95,60,33,0.00,40.00,24,14,37,0.00
2013-4-19,52.0,42.6,33.0,32.0,23.5,-99.9,72,50,31,0.00,40.00,19,8,26,0.03
2013-4-20,55.0,45.4,38.0,37.0,28.7,-99.9,94,57,32,0.00,40.00,29,12,35,0.03
2013-4-21,44.0,30.3,26.0,36.0,23.4,-99.9,100,90,62,0.00,40.00,21,9,32,0.36
2013-4-22,29.0,22.4,13.0,26.0,16.7,-99.9,100,85,63,0.00,40.00,14,4,18,0.10
2013-4-23,38.0,24.2,12.0,26.0,4.6,-99.9,83,55,37,0.00,40.00,13,5,17,0.00
2013-4-24,47.0,34.4,28.0,34.0,25.3,-99.9,100,76,36,0.00,40.00,22,13,34,0.20
2013-4-25,62.0,52.3,35.0,26.0,17.8,8.0,68,28,13,0.00,40.00,19,10,28,0.00
2013-4-26,68.0,55.2,39.0,30.0,25.2,-99.9,59,33,20,0.00,40.00,11,5,17,0.00
2013-4-27,74.0,61.3,45.0,34.0,24.5,14.0,49,27,11,0.00,40.00,19,7,30,0.00
2013-4-28,63.0,52.5,43.0,39.0,31.4,-99.9,82,47,25,0.00,40.00,24,11,32,0.03
2013-4-29,64.0,45.6,38.0,42.0,32.3,-99.9,93,69,22,0.00,40.00,28,10,41,0.30
2013-4-30,44.0,36.8,31.0,30.0,21.4,13.0,95,56,28,0.00,40.00,22,14,32,0.01
2013-5-1,45.0,34.4,28.0,24.0,18.3,-99.9,84,56,27,0.00,40.00,9,3,13,0.00
2013-5-2,59.0,43.5,27.0,29.0,19.0,11.0,73,42,18,0.00,40.00,12,5,19,0.00
2013-5-3,62.0,49.5,35.0,37.0,25.8,17.0,69,44,18,0.00,40.00,17,8,24,0.00
2013-5-4,51.0,44.4,41.0,44.0,38.4,-99.9,99,84,64,0.00,40.00,12,5,17,0.05
2013-5-5,62.0,49.3,35.0,40.0,32.3,26.0,95,57,28,0.00,40.00,12,5,19,0.00
2013-5-6,69.0,54.3,38.0,37.0,31.1,-99.9,73,45,22,0.00,40.00,10,6,17,0.00
2013-5-7,73.0,58.9,42.0,40.0,29.9,-99.9,68,37,19,0.00,40.00,12,6,21,0.00
2013-5-8,68.0,54.9,45.0,41.0,33.2,-99.9,78,48,28,0.00,40.00,18,8,24,0.00
2013-5-9,69.0,58.3,44.0,43.0,36.3,32.0,74,45,25,0.00,40.00,13,5,25,0.00
2013-5-10,70.0,55.9,44.0,42.0,32.1,-99.9,70,45,22,0.00,40.00,20,8,29,0.00
2013-5-11,70.0,54.9,39.0,40.0,29.2,-99.9,66,40,24,0.00,40.00,13,5,19,0.00
2013-5-12,82.0,68.1,53.0,43.0,35.9,-99.9,55,33,18,0.00,40.00,21,9,29,0.00
2013-5-13,87.0,74.2,59.0,47.0,34.9,-99.9,46,26,13,0.00,40.00,15,6,23,0.00
2013-5-14,79.0,66.2,51.0,50.0,42.0,30.0,75,44,17,0.00,40.00,22,7,30,0.00
2013-5-15,73.0,58.5,47.0,45.0,32.2,-99.9,67,40,27,0.00,40.00,11,5,14,0.00
2013-5-16,69.0,53.5,46.0,52.0,33.0,-99.9,94,73,43,0.00,40.00,21,6,27,0.06
2013-5-17,56.0,50.8,50.0,53.0,43.2,-99.9,99,90,82,0.00,40.00,21,5,29,0.04
2013-5-18,59.0,50.7,47.0,52.0,46.1,-99.9,99,89,77,0.00,40.00,17,8,22,0.00
2013-5-19,50.0,48.6,48.0,50.0,47.4,-99.9,100,97,95,0.00,40.00,26,18,37,1.13
2013-5-20,57.0,48.7,44.0,47.0,39.8,-99.9,100,78,35,0.00,40.00,29,20,40,0.11
2013-5-21,61.0,49.6,43.0,43.0,30.2,-99.9,87,56,24,0.00,40.00,17,10,24,0.00
2013-5-22,60.0,47.4,41.0,47.0,37.8,-99.9,98,77,57,0.00,40.00,27,18,35,0.00
2013-5-23,66.0,54.2,47.0,49.0,40.1,-99.9,82,65,51,0.00,40.00,38,30,50,0.00
2013-5-24,69.0,57.3,46.0,49.0,35.7,-99.9,100,53,14,0.00,40.00,21,9,30,0.00
2013-5-25,74.0,59.6,46.0,53.0,43.2,36.0,80,56,36,0.00,40.00,22,8,30,0.00
2013-5-26,71.0,59.7,48.0,56.0,48.9,38.0,90,68,48,0.00,40.00,17,9,24,0.01
2013-5-27,63.0,53.4,45.0,51.0,44.8,-99.9,97,76,40,0.00,40.00,24,10,36,0.07
2013-5-28,68.0,54.9,44.0,49.0,43.5,37.0,90,68,35,0.00,40.00,24,5,39,0.01
2013-5-29,53.0,50.3,48.0,51.0,47.8,-99.9,99,93,86,0.00,40.00,21,10,27,0.14
2013-5-30,48.0,47.0,44.0,47.0,44.8,42.0,97,92,83,0.00,40.00,39,26,54,0.26
2013-5-31,52.0,45.1,44.0,44.0,38.4,-99.9,98,82,67,0.00,40.00,44,32,57,0.24
2013-6-1,65.0,52.2,44.0,47.0,39.3,-99.9,89,66,36,0.00,40.00,21,8,29,0.00
2013-6-2,70.0,57.5,44.0,53.0,45.9,-99.9,93,68,41,0.00,40.00,17,10,23,0.00
2013-6-3,64.0,51.7,44.0,52.0,39.5,-99.9,95,68,33,0.00,40.00,31,18,40,0.11
2013-6-4,50.0,44.3,39.0,41.0,37.5,35.0,94,77,64,0.00,40.00,24,14,32,0.00
2013-6-5,63.0,50.5,37.0,45.0,40.2,35.0,99,71,42,0.00,40.00,10,4,16,0.00
2013-6-6,72.0,59.9,44.0,53.0,43.0,-99.9,88,58,30,0.00,40.00,12,5,18,0.00
2013-6-7,78.0,62.3,49.0,57.0,48.9,-99.9,90,65,30,0.00,40.00,24,5,37,0.07
2013-6-8,71.0,62.5,55.0,54.0,46.1,41.0,93,57,36,0.00,40.00,24,13,32,0.02
2013-6-9,78.0,64.7,50.0,55.0,46.3,-99.9,90,55,32,0.00,40.00,14,7,19,0.00
2013-6-10,74.0,65.2,53.0,55.0,50.4,45.0,85,60,38,0.00,40.00,17,8,26,0.00
2013-6-11,74.0,62.1,53.0,62.0,53.8,-99.9,95,76,60,0.00,40.00,34,12,45,0.21
2013-6-12,68.0,59.1,53.0,60.0,53.5,-99.9,96,84,67,0.00,40.00,23,10,28,0.02
2013-6-13,74.0,62.9,55.0,61.0,56.1,51.0,94,79,52,0.00,40.00,30,11,39,0.00
2013-6-14,65.0,56.1,46.0,51.0,40.7,-99.9,90,60,37,0.00,40.00,31,11,39,0.00
2013-6-15,72.0,60.2,44.0,47.0,39.2,32.0,75,47,28,0.00,40.00,8,3,14,0.00
2013-6-16,75.0,62.1,48.0,52.0,42.5,-99.9,79,52,34,0.00,40.00,10,5,16,0.00
2013-6-17,74.0,62.2,52.0,56.0,47.5,-99.9,85,63,46,0.00,40.00,11,6,16,0.00
2013-6-18,77.0,64.4,53.0,55.0,46.7,-99.9,89,58,29,0.00,40.00,22,11,29,0.00
2013-6-19,87.0,69.9,54.0,57.0,48.0,26.0,79,49,12,0.00,40.00,22,11,32,0.00
2013-6-20,72.0,58.0,47.0,45.0,39.8,-99.9,81,54,31,0.00,40.00,16,8,25,0.00
2013-6-22,59.0,52.7,46.0,52.0,48.4,42.0,97,86,69,0.00,40.00,23,8,30,0.01
2013-6-24,82.0,63.6,51.0,55.0,42.1,-99.9,80,53,20,0.00,40.00,21,6,27,0.00
2013-6-25,82.0,63.6,59.0,53.0,36.7,-99.9,75,45,29,0.00,40.00,22,7,28,0.02
2013-6-26,80.0,70.7,60.0,56.0,50.3,43.0,69,50,35,0.00,40.00,9,4,11,0.00
2013-6-27,82.0,68.6,54.0,58.0,48.1,-99.9,77,53,34,0.00,40.00,12,5,18,0.00
2013-6-28,84.0,67.6,60.0,57.0,39.3,-99.9,77,45,29,0.00,40.00,11,4,17,0.00
2013-6-29,85.0,73.0,60.0,57.0,50.3,-99.9,73,48,30,0.00,40.00,12,5,16,0.00
2013-6-30,85.0,67.4,58.0,57.0,44.2,-99.9,79,51,28,0.00,40.00,12,6,19,0.00
2013-7-1,85.0,69.7,59.0,55.0,49.2,-99.9,75,53,27,0.00,40.00,9,4,13,0.00
2013-7-2,88.0,72.7,60.0,55.0,44.6,-99.9,73,43,21,0.00,40.00,6,3,10,0.00
2013-7-3,89.0,65.0,60.0,59.0,27.4,-99.9,66,36,26,0.00,40.00,24,9,34,0.07
2013-7-4,87.0,71.3,62.0,61.0,50.0,-99.9,90,53,32,0.00,40.00,24,7,31,0.05
2013-7-5,77.0,65.5,60.0,61.0,53.6,-99.9,89,70,51,0.00,40.00,19,9,26,0.00
2013-7-7,84.0,66.5,57.0,60.0,54.9,51.0,87,69,32,0.00,40.00,16,6,23,0.00
2013-7-8,87.0,67.1,60.0,56.0,48.2,-99.9,79,57,18,0.00,40.00,20,10,24,0.00
2013-7-9,77.0,64.4,54.0,58.0,48.3,-99.9,95,63,39,0.00,40.00,10,5,16,0.00
2013-7-10,89.0,69.8,58.0,58.0,39.2,-99.9,77,42,22,0.00,40.00,15,5,19,0.00
2013-7-11,92.0,74.1,63.0,55.0,45.2,-99.9,68,40,17,0.00,40.00,17,10,20,0.00
2013-7-12,81.0,64.6,65.0,55.0,33.5,-99.9,66,42,32,0.00,40.00,18,10,23,0.00
2013-7-13,91.0,70.7,62.0,56.0,36.8,-99.9,73,40,12,0.00,40.00,17,9,23,0.00
2013-7-22,90.0,68.6,57.0,53.0,35.1,-99.9,71,37,17,0.00,40.00,18,9,24,0.00
2013-7-23,86.0,75.0,60.0,51.0,45.4,35.0,64,38,16,0.00,40.00,14,6,17,0.00
2013-7-24,90.0,78.4,61.0,51.0,46.5,42.0,63,35,20,0.00,40.00,16,9,23,0.00
2013-7-25,81.0,68.8,55.0,53.0,44.1,-99.9,81,46,29,0.00,40.00,15,6,22,0.00
2013-7-26,82.0,65.6,55.0,51.0,41.6,-99.9,78,49,31,0.00,40.00,16,10,21,0.00
2013-7-27,87.0,66.8,57.0,52.0,31.1,-99.9,81,36,19,0.00,40.00,15,8,21,0.00
2013-7-28,79.0,69.5,60.0,56.0,46.7,40.0,70,45,29,0.00,40.00,16,6,24,0.00
2013-7-29,72.0,53.9,52.0,57.0,37.0,-99.9,91,69,47,0.00,40.00,14,7,22,0.00
2013-7-30,76.0,61.0,57.0,57.0,42.9,-99.9,86,62,42,0.00,40.00,13,7,17,0.06
2013-7-31,84.0,64.3,52.0,54.0,37.3,-99.9,84,48,17,0.00,40.00,9,4,15,0.00
2013-8-1,87.0,70.7,62.0,58.0,45.4,-99.9,69,45,24,0.00,40.00,19,7,26,0.03
2013-8-2,79.0,56.3,56.0,57.0,32.5,-99.9,97,59,36,0.00,40.00,18,6,29,0.00
2013-8-3,84.0,66.0,56.0,61.0,51.8,-99.9,97,68,38,0.00,40.00,15,8,22,0.00
2013-8-4,80.0,60.7,56.0,61.0,43.7,-99.9,100,69,41,0.00,40.00,16,6,21,0.00
2013-8-5,86.0,67.6,58.0,63.0,47.4,-99.9,100,60,25,0.00,40.00,13,7,19,0.00
2013-8-6,80.0,65.2,57.0,50.0,36.2,-99.9,78,42,22,0.00,40.00,16,7,26,0.00
2013-8-7,84.0,71.4,56.0,49.0,38.8,-99.9,64,35,24,0.00,40.00,17,7,23,0.00
2013-8-8,83.0,69.9,55.0,53.0,48.6,45.0,77,49,28,0.00,40.00,15,7,21,0.00
2013-8-9,76.0,64.8,59.0,60.0,52.8,-99.9,89,68,36,0.00,40.00,17,8,24,0.00
2013-8-10,83.0,65.5,54.0,60.0,38.4,-99.9,100,57,31,0.00,40.00,19,6,24,0.00
2013-8-11,88.0,71.9,55.0,46.0,42.1,34.0,61,37,18,0.00,40.00,27,5,43,0.00
2013-8-18,-200.0,0.0,200.0,-99.9,-99.9,-99.9,0,0,100,0.00,40.00,1,1,4,0.00
2013-8-19,80.0,24.1,65.0,47.0,-51.9,-99.9,50,16,19,0.00,40.00,9,5,11,0.00
2013-8-20,89.0,34.6,84.0,31.0,-47.5,-99.9,21,10,13,0.00,40.00,7,6,14,0.00
2013-8-21,81.0,46.6,73.0,43.0,-14.4,-99.9,34,17,25,0.00,40.00,21,12,27,0.00
2013-8-22,85.0,32.5,64.0,54.0,-30.7,-99.9,66,24,31,0.00,40.00,12,7,18,0.00
2013-8-23,86.0,37.2,63.0,55.0,-25.5,-99.9,73,24,22,0.00,40.00,7,4,12,0.00
2013-8-24,-200.0,0.0,200.0,-99.9,-99.9,-99.9,0,0,100,0.00,40.00,0,0,1,0.00